createdAt,value
2019-01-02T00:03:27.576Z,5.70
2019-01-02T00:06:11.321Z,5.70
2019-01-02T00:08:59.426Z,5.60
2019-01-02T00:11:41.720Z,5.30
2019-01-02T00:14:29.645Z,5.00
2019-01-02T00:17:12.677Z,4.90
2019-01-02T00:20:00.678Z,4.80
2019-01-02T00:22:42.689Z,4.70
2019-01-02T00:25:30.667Z,4.70
2019-01-02T00:28:14.177Z,4.70
2019-01-02T00:30:58.038Z,4.70
2019-01-02T00:33:46.166Z,4.50
2019-01-02T00:36:29.288Z,4.50
2019-01-02T00:39:17.418Z,4.50
2019-01-02T00:41:59.481Z,4.50
2019-01-02T00:44:47.745Z,4.60
2019-01-02T00:47:29.704Z,4.60
2019-01-02T00:50:11.645Z,4.60
2019-01-02T00:52:59.612Z,4.60
2019-01-02T00:55:42.526Z,4.60
2019-01-02T00:58:30.634Z,4.60
2019-01-02T01:01:12.813Z,4.60
2019-01-02T01:04:00.864Z,4.60
2019-01-02T01:06:42.546Z,4.60
2019-01-02T01:09:30.941Z,4.50
2019-01-02T01:12:12.821Z,4.50
2019-01-02T01:15:00.863Z,4.60
2019-01-02T01:17:44.056Z,4.50
2019-01-02T01:20:32.195Z,4.50
2019-01-02T01:23:14.262Z,4.50
2019-01-02T01:26:02.687Z,4.50
2019-01-02T01:28:46.411Z,4.60
2019-01-02T01:31:34.399Z,4.50
2019-01-02T01:34:16.137Z,4.60
2019-01-02T01:37:04.171Z,4.60
2019-01-02T01:39:46.110Z,4.60
2019-01-02T01:42:34.286Z,4.60
2019-01-02T01:45:16.240Z,4.70
2019-01-02T01:48:04.284Z,4.60
2019-01-02T01:50:46.248Z,4.50
2019-01-02T01:53:35.078Z,4.70
2019-01-02T01:56:18.422Z,4.60
2019-01-02T01:59:06.454Z,4.70
2019-01-02T02:01:35.267Z,4.60
2019-01-02T02:04:24.976Z,4.70
2019-01-02T02:07:08.063Z,4.60
2019-01-02T02:09:56.104Z,4.70
2019-01-02T02:12:44.139Z,4.70
2019-01-02T02:15:29.886Z,4.60
2019-01-02T02:18:18.504Z,4.50
2019-01-02T02:21:00.967Z,4.50
2019-01-02T02:23:49.308Z,4.60
2019-01-02T02:26:30.852Z,4.70
2019-01-02T02:29:19.228Z,4.70
2019-01-02T02:32:03.168Z,4.70
2019-01-02T02:34:32.472Z,4.70
2019-01-02T02:37:20.488Z,4.80
2019-01-02T02:40:29.394Z,4.80
2019-01-02T02:43:12.210Z,4.80
2019-01-02T02:45:40.992Z,4.80
2019-01-02T02:48:29.412Z,4.80
2019-01-02T02:51:12.681Z,4.70
2019-01-02T02:54:00.987Z,4.70
2019-01-02T02:56:43.223Z,4.60
2019-01-02T02:59:31.683Z,4.60
2019-01-02T03:02:15.626Z,4.60
2019-01-02T03:04:44.691Z,4.60
2019-01-02T03:07:32.925Z,4.70
2019-01-02T03:10:03.496Z,4.70
2019-01-02T03:12:46.900Z,4.70
2019-01-02T03:15:35.208Z,4.70
2019-01-02T03:18:05.718Z,4.60
2019-01-02T03:20:53.679Z,4.70
2019-01-02T03:23:35.506Z,4.60
2019-01-02T03:26:23.699Z,4.60
2019-01-02T03:29:05.433Z,4.60
2019-01-02T03:31:53.781Z,4.50
2019-01-02T03:34:24.349Z,4.30
2019-01-02T03:37:12.357Z,4.30
2019-01-02T03:40:00.360Z,4.30
2019-01-02T03:42:42.447Z,4.40
2019-01-02T03:45:30.548Z,4.30
2019-01-02T03:48:12.460Z,4.20
2019-01-02T03:51:00.692Z,4.40
2019-01-02T03:53:42.781Z,4.40
2019-01-02T03:56:30.909Z,4.30
2019-01-02T03:59:14.845Z,4.40
2019-01-02T04:01:59.311Z,4.30
2019-01-02T04:04:47.379Z,4.40
2019-01-02T04:07:29.266Z,4.40
2019-01-02T04:10:17.268Z,4.40
2019-01-02T04:13:00.597Z,4.40
2019-01-02T04:15:48.733Z,4.30
2019-01-02T04:18:17.461Z,4.40
2019-01-02T04:20:46.117Z,4.40
2019-01-02T04:23:14.852Z,4.40
2019-01-02T04:25:43.748Z,4.40
2019-01-02T04:28:14.109Z,4.30
2019-01-02T04:30:42.872Z,4.40
2019-01-02T04:33:11.692Z,4.40
2019-01-02T04:35:59.778Z,4.30
2019-01-02T04:38:47.813Z,4.30
2019-01-02T04:41:29.106Z,4.30
2019-01-02T04:43:58.908Z,4.40
2019-01-02T04:46:46.941Z,4.40
2019-01-02T04:49:28.976Z,4.30
2019-01-02T04:52:16.922Z,4.30
2019-01-02T04:55:05.495Z,4.40
2019-01-02T04:57:46.540Z,4.30
2019-01-02T05:00:34.667Z,4.30
2019-01-02T05:03:03.578Z,4.30
2019-01-02T05:05:45.498Z,4.30
2019-01-02T05:08:33.469Z,4.30
2019-01-02T05:11:16.358Z,4.30
2019-01-02T05:13:45.045Z,4.20
2019-01-02T05:16:33.103Z,4.30
2019-01-02T05:19:14.713Z,4.30
2019-01-02T05:22:02.767Z,4.20
2019-01-02T05:24:44.838Z,4.10
2019-01-02T05:27:32.922Z,4.00
2019-01-02T05:30:20.927Z,4.10
2019-01-02T05:33:04.432Z,4.00
2019-01-02T05:35:33.160Z,4.10
2019-01-02T05:38:21.190Z,4.10
2019-01-02T05:41:03.209Z,4.00
2019-01-02T05:43:51.409Z,4.10
2019-01-02T05:46:33.027Z,4.10
2019-01-02T05:49:21.259Z,4.10
2019-01-02T05:52:03.335Z,4.10
2019-01-02T05:57:47.563Z,4.10
2019-01-02T06:00:39.807Z,4.10
2019-01-02T06:03:18.906Z,4.10
2019-01-02T06:06:06.874Z,4.10
2019-01-02T06:08:50.284Z,4.10
2019-01-02T06:11:32.066Z,4.10
2019-01-02T06:14:20.208Z,4.00
2019-01-02T06:17:01.639Z,4.00
2019-01-02T06:19:50.060Z,4.10
2019-01-02T06:22:32.019Z,4.10
2019-01-02T06:25:20.051Z,4.20
2019-01-02T06:27:48.803Z,4.10
2019-01-02T06:30:37.136Z,4.20
2019-01-02T06:33:18.442Z,4.10
2019-01-02T06:36:06.469Z,4.10
2019-01-02T06:38:48.719Z,4.10
2019-01-02T06:41:36.760Z,4.00
2019-01-02T06:44:19.125Z,4.10
2019-01-02T06:47:07.274Z,4.20
2019-01-02T06:49:55.274Z,4.10
2019-01-02T06:52:37.107Z,4.20
2019-01-02T06:55:26.624Z,4.10
2019-01-02T06:58:08.833Z,4.10
2019-01-02T07:00:37.765Z,4.20
2019-01-02T07:03:25.916Z,4.20
2019-01-02T07:06:14.184Z,4.10
2019-01-02T07:08:55.754Z,4.00
2019-01-02T07:11:43.862Z,4.10
2019-01-02T07:14:25.577Z,4.10
2019-01-02T07:17:13.595Z,4.10
2019-01-02T07:19:54.826Z,4.10
2019-01-02T07:22:42.976Z,4.10
2019-01-02T07:25:11.765Z,4.10
2019-01-02T07:28:04.593Z,4.10
2019-01-02T07:30:50.400Z,4.20
2019-01-02T07:33:05.548Z,4.20
2019-01-02T07:39:32.871Z,4.00
2019-01-02T07:42:42.544Z,3.90
2019-01-02T07:48:44.203Z,4.00
2019-01-02T07:51:30.048Z,4.00
2019-01-02T07:54:40.509Z,4.00
2019-01-02T07:57:28.535Z,4.00
2019-01-02T08:01:13.566Z,4.10
2019-01-02T08:04:05.958Z,4.00
2019-01-02T08:07:10.102Z,3.90
2019-01-02T08:10:14.870Z,3.90
2019-01-02T08:13:24.839Z,3.80
2019-01-02T08:16:29.171Z,3.90
2019-01-02T08:19:32.950Z,3.90
2019-01-02T08:22:41.259Z,3.90
2019-01-02T08:25:50.954Z,3.90
2019-01-02T08:28:59.287Z,4.00
2019-01-02T08:38:52.021Z,4.90
2019-01-02T08:41:47.239Z,5.10
2019-01-02T08:44:50.832Z,5.00
2019-01-02T08:51:14.416Z,4.90
2019-01-02T08:53:58.628Z,4.90
2019-01-02T08:57:09.838Z,5.00
2019-01-02T09:00:17.336Z,5.20
2019-01-02T09:03:05.414Z,5.30
2019-01-02T09:06:25.394Z,5.30
2019-01-02T09:09:15.728Z,5.30
2019-01-02T09:12:03.840Z,5.50
2019-01-02T09:14:47.996Z,5.70
2019-01-02T09:17:54.442Z,5.70
2019-01-02T09:20:46.682Z,5.50
2019-01-02T09:23:52.751Z,5.40
2019-01-02T09:26:42.644Z,5.60
2019-01-02T09:29:33.248Z,6.00
2019-01-02T09:32:42.782Z,6.10
2019-01-02T09:35:26.225Z,6.30
2019-01-02T09:38:30.122Z,6.20
2019-01-02T09:41:20.770Z,5.90
2019-01-02T09:44:04.337Z,5.90
2019-01-02T09:47:14.751Z,5.90
2019-01-02T09:50:20.179Z,6.00
2019-01-02T09:53:22.251Z,6.00
2019-01-02T09:56:30.529Z,5.80
2019-01-02T09:59:15.031Z,5.90
2019-01-02T10:02:18.762Z,5.60
2019-01-02T10:05:26.758Z,5.60
2019-01-02T10:08:13.856Z,5.70
2019-01-02T10:11:17.164Z,5.70
2019-01-02T10:14:00.842Z,5.80
2019-01-02T10:20:20.223Z,5.50
2019-01-02T10:23:29.263Z,5.30
2019-01-02T10:26:35.834Z,5.10
2019-01-02T10:29:43.850Z,4.90
2019-01-02T10:32:31.788Z,4.90
2019-01-02T10:35:17.775Z,4.90
2019-01-02T10:38:26.165Z,4.90
2019-01-02T10:41:34.174Z,4.90
2019-01-02T10:44:21.065Z,5.00
2019-01-02T10:47:29.227Z,5.00
2019-01-02T10:50:31.300Z,5.10
2019-01-02T10:53:17.916Z,5.20
2019-01-02T10:56:20.485Z,5.40
2019-01-02T10:59:29.170Z,5.40
2019-01-02T11:02:41.350Z,5.50
2019-01-02T11:05:32.104Z,5.40
2019-01-02T11:08:22.061Z,5.40
2019-01-02T11:11:06.208Z,8.50
2019-01-02T11:14:07.361Z,13.00
2019-01-02T11:23:33.761Z,13.90
2019-01-02T11:26:41.457Z,17.30
2019-01-02T11:29:45.725Z,18.20
2019-01-02T11:32:55.161Z,20.70
2019-01-02T11:36:03.490Z,21.60
2019-01-02T11:39:11.694Z,22.60
2019-01-02T11:42:14.572Z,20.90
2019-01-02T11:45:18.216Z,20.40
2019-01-02T11:48:06.597Z,17.80
2019-01-02T11:56:23.472Z,15.80
2019-01-02T11:59:11.851Z,13.50
2019-01-02T12:01:40.967Z,12.10
2019-01-02T12:04:29.338Z,11.00
2019-01-02T12:07:12.856Z,10.20
2019-01-02T12:10:01.210Z,9.70
2019-01-02T12:12:42.973Z,9.20
2019-01-02T12:15:31.049Z,8.90
2019-01-02T12:18:12.947Z,8.40
2019-01-02T12:21:00.966Z,8.00
2019-01-02T12:23:45.285Z,7.70
2019-01-02T12:26:32.915Z,7.50
2019-01-02T12:29:14.677Z,9.70
2019-01-02T12:32:03.126Z,12.90
2019-01-02T12:34:32.324Z,11.90
2019-01-02T12:37:20.495Z,11.70
2019-01-02T12:40:03.762Z,12.30
2019-01-02T12:42:51.853Z,14.50
2019-01-02T12:45:33.967Z,15.60
2019-01-02T12:48:22.088Z,13.70
2019-01-02T12:50:50.772Z,12.50
2019-01-02T12:53:43.748Z,11.10
2019-01-02T12:56:21.913Z,10.00
2019-01-02T12:58:50.992Z,9.00
2019-01-02T13:01:53.376Z,8.50
2019-01-02T13:04:55.969Z,8.10
2019-01-02T13:08:18.016Z,7.80
2019-01-02T13:13:59.013Z,7.80
2019-01-02T13:14:00.382Z,8.40
2019-01-02T13:17:03.358Z,8.90
2019-01-02T13:20:11.070Z,8.50
2019-01-02T13:22:59.467Z,8.40
2019-01-02T13:25:42.756Z,8.00
2019-01-02T13:28:51.170Z,7.90
2019-01-02T13:31:56.184Z,7.90
2019-01-02T13:35:03.710Z,7.80
2019-01-02T13:37:53.730Z,7.60
2019-01-02T13:41:01.710Z,7.50
2019-01-02T13:44:05.736Z,7.50
2019-01-02T13:46:59.092Z,7.40
2019-01-02T13:49:48.857Z,7.40
2019-01-02T13:55:52.344Z,7.50
2019-01-02T13:58:21.764Z,7.50
2019-01-02T14:01:10.104Z,7.50
2019-01-02T14:03:52.101Z,7.30
2019-01-02T14:06:40.369Z,7.30
2019-01-02T14:09:09.199Z,7.30
2019-01-02T14:11:38.331Z,7.40
2019-01-02T14:14:07.179Z,7.30
2019-01-02T14:16:52.753Z,7.20
2019-01-02T14:19:40.784Z,7.20
2019-01-02T14:22:26.250Z,7.10
2019-01-02T14:25:14.784Z,7.00
2019-01-02T14:28:11.414Z,6.90
2019-01-02T14:30:59.721Z,6.70
2019-01-02T14:33:45.515Z,6.80
2019-01-02T14:36:33.661Z,6.80
2019-01-02T14:39:20.040Z,6.70
2019-01-02T14:42:08.793Z,6.70
2019-01-02T14:48:05.692Z,6.40
2019-01-02T14:51:11.550Z,6.20
2019-01-02T14:53:44.396Z,6.10
2019-01-02T14:56:13.405Z,6.10
2019-01-02T15:01:28.284Z,6.30
2019-01-02T15:04:16.330Z,6.40
2019-01-02T15:07:04.883Z,6.40
2019-01-02T15:09:48.133Z,6.40
2019-01-02T15:12:31.366Z,6.30
2019-01-02T15:15:19.432Z,6.20
2019-01-02T15:20:57.606Z,6.00
2019-01-02T15:23:46.026Z,6.00
2019-01-02T15:26:34.456Z,5.80
2019-01-02T15:29:16.008Z,5.70
2019-01-02T15:32:04.169Z,5.70
2019-01-02T15:34:46.832Z,5.60
2019-01-02T15:37:34.813Z,5.40
2019-01-02T15:40:17.012Z,5.30
2019-01-02T15:43:05.806Z,5.20
2019-01-02T15:45:35.103Z,5.20
2019-01-02T15:48:04.187Z,5.10
2019-01-02T15:50:52.665Z,5.00
2019-01-02T15:53:21.860Z,4.90
2019-01-02T15:56:10.461Z,4.80
2019-01-02T15:58:52.262Z,4.60
2019-01-02T16:01:40.455Z,4.60
2019-01-02T16:04:09.532Z,4.50
2019-01-02T16:06:59.706Z,4.40
2019-01-02T16:09:41.431Z,4.40
2019-01-02T16:12:10.703Z,4.20
2019-01-02T16:14:39.780Z,4.30
2019-01-02T16:17:08.662Z,4.20
2019-01-02T16:19:57.083Z,4.20
2019-01-02T16:22:45.567Z,4.10
2019-01-02T16:25:14.635Z,4.20
2019-01-02T16:27:56.893Z,4.10
2019-01-02T16:30:45.283Z,4.00
2019-01-02T16:36:35.560Z,4.10
2019-01-02T16:39:25.253Z,3.90
2019-01-02T16:42:06.910Z,3.90
2019-01-02T16:44:55.274Z,3.90
2019-01-02T16:47:24.183Z,3.90
2019-01-02T16:50:12.459Z,3.80
2019-01-02T16:52:41.567Z,3.80
2019-01-02T16:55:29.961Z,3.80
2019-01-02T16:58:12.345Z,3.70
2019-01-02T17:00:41.302Z,3.80
2019-01-02T17:03:29.541Z,3.80
2019-01-02T17:06:11.885Z,3.80
2019-01-02T17:09:00.241Z,3.60
2019-01-02T17:11:42.804Z,3.60
2019-01-02T17:14:26.685Z,3.40
2019-01-02T17:17:09.629Z,3.60
2019-01-02T17:19:38.633Z,3.60
2019-01-02T17:22:27.037Z,3.60
2019-01-02T17:25:15.588Z,3.50
2019-01-02T17:27:58.108Z,3.40
2019-01-02T17:30:39.752Z,3.40
2019-01-02T17:33:27.644Z,3.40
2019-01-02T17:36:10.169Z,3.40
2019-01-02T17:38:58.286Z,3.40
2019-01-02T17:41:40.390Z,3.20
2019-01-02T17:44:28.635Z,3.30
2019-01-02T17:47:11.339Z,3.30
2019-01-02T17:49:40.170Z,3.20
2019-01-02T17:52:09.165Z,3.30
2019-01-02T17:54:57.428Z,3.30
2019-01-02T17:57:39.237Z,3.30
2019-01-02T18:00:29.161Z,3.10
2019-01-02T18:03:14.471Z,3.10
2019-01-02T18:05:56.167Z,3.10
2019-01-02T18:08:38.248Z,3.00
2019-01-02T18:11:26.669Z,3.00
2019-01-02T18:14:09.418Z,3.00
2019-01-02T18:16:57.743Z,3.00
2019-01-02T18:19:26.701Z,3.00
2019-01-02T18:22:08.652Z,3.00
2019-01-02T18:24:57.076Z,2.90
2019-01-02T18:27:26.093Z,3.00
2019-01-02T18:30:14.270Z,2.90
2019-01-02T18:32:55.757Z,2.90
2019-01-02T18:35:24.616Z,2.70
2019-01-02T18:38:12.804Z,2.80
2019-01-02T18:41:01.004Z,2.70
2019-01-02T18:43:43.932Z,2.70
2019-01-02T18:46:32.171Z,2.60
2019-01-02T18:49:13.914Z,2.70
2019-01-02T18:51:42.652Z,2.70
2019-01-02T18:54:30.871Z,2.80
2019-01-02T18:57:19.184Z,2.70
2019-01-02T19:00:06.078Z,2.70
2019-01-02T19:02:31.502Z,2.60
2019-01-02T19:05:00.467Z,2.70
2019-01-02T19:07:29.465Z,2.70
2019-01-02T19:09:58.327Z,2.70
2019-01-02T19:12:46.534Z,2.70
2019-01-02T19:15:28.319Z,2.70
2019-01-02T19:18:11.019Z,2.70
2019-01-02T19:20:53.908Z,2.60
2019-01-02T19:23:42.172Z,2.70
2019-01-02T19:26:11.049Z,2.80
2019-01-02T19:28:59.371Z,2.70
2019-01-02T19:31:47.799Z,2.70
2019-01-02T19:34:31.115Z,2.50
2019-01-02T19:37:00.105Z,2.60
2019-01-02T19:39:48.180Z,2.50
2019-01-02T19:42:34.087Z,2.50
2019-01-02T19:45:02.969Z,2.60
2019-01-02T19:47:51.036Z,2.50
2019-01-02T19:50:39.372Z,2.50
2019-01-02T19:53:21.071Z,2.50
2019-01-02T19:55:49.812Z,2.50
2019-01-02T19:58:31.650Z,2.50
2019-01-02T20:01:20.030Z,2.40
2019-01-02T20:04:01.411Z,2.50
2019-01-02T20:06:49.572Z,2.40
2019-01-02T20:09:31.107Z,2.30
2019-01-02T20:12:19.206Z,2.30
2019-01-02T20:15:01.128Z,2.20
2019-01-02T20:20:33.290Z,2.40
2019-01-02T20:23:21.487Z,2.20
2019-01-02T20:26:03.040Z,2.30
2019-01-02T20:28:45.286Z,2.20
2019-01-02T20:31:14.179Z,2.30
2019-01-02T20:33:42.972Z,2.30
2019-01-02T20:36:11.987Z,2.30
2019-01-02T20:39:00.180Z,0.50
2019-01-02T20:41:29.093Z,2.20
2019-01-02T20:44:17.284Z,2.20
2019-01-02T20:47:00.714Z,2.20
2019-01-02T20:49:42.715Z,2.20
2019-01-02T20:52:30.862Z,2.20
2019-01-02T20:55:14.459Z,2.20
2019-01-02T20:58:02.540Z,2.20
2019-01-02T21:00:44.881Z,2.10
2019-01-02T21:03:33.326Z,2.10
2019-01-02T21:06:02.407Z,2.00
2019-01-02T21:08:50.683Z,1.90
2019-01-02T21:11:38.922Z,1.90
2019-01-02T21:14:21.387Z,1.90
2019-01-02T21:16:50.279Z,1.90
2019-01-02T21:19:19.208Z,1.90
2019-01-02T21:22:07.424Z,2.00
2019-01-02T21:24:36.444Z,2.00
2019-01-02T21:27:24.512Z,2.10
2019-01-02T21:30:12.666Z,2.10
2019-01-02T21:32:54.583Z,2.20
2019-01-02T21:35:42.934Z,2.20
2019-01-02T21:38:24.518Z,2.20
2019-01-02T21:41:12.558Z,2.20
2019-01-02T21:43:54.477Z,2.20
2019-01-02T21:46:42.639Z,2.10
2019-01-02T21:49:24.458Z,2.10
2019-01-02T21:52:12.706Z,2.10
2019-01-02T21:54:54.072Z,2.20
2019-01-02T21:57:42.431Z,2.20
2019-01-02T22:00:24.493Z,2.20
2019-01-02T22:03:12.638Z,2.20
2019-01-02T22:05:54.504Z,2.20
2019-01-02T22:08:42.630Z,2.00
2019-01-02T22:11:25.151Z,1.90
2019-01-02T22:13:54.271Z,2.00
2019-01-02T22:16:23.165Z,2.10
2019-01-02T22:19:11.253Z,1.90
2019-01-02T22:21:52.764Z,1.70
2019-01-02T22:24:40.877Z,1.90
2019-01-02T22:29:51.177Z,1.70
2019-01-02T22:32:39.196Z,1.60
2019-01-02T22:35:22.324Z,1.70
2019-01-02T22:41:10.741Z,1.70
2019-01-02T22:43:58.794Z,1.70
2019-01-02T22:46:40.571Z,1.70
2019-01-02T22:49:28.852Z,1.70
2019-01-02T22:52:10.730Z,1.70
2019-01-02T22:54:58.933Z,1.70
2019-01-02T22:57:41.710Z,1.70
2019-01-02T23:00:49.176Z,1.60
2019-01-02T23:03:32.842Z,1.40
2019-01-02T23:06:40.223Z,1.50
2019-01-02T23:09:23.611Z,1.40
2019-01-02T23:12:31.223Z,1.40
2019-01-02T23:15:33.577Z,1.50
2019-01-02T23:18:21.586Z,1.30
2019-01-02T23:21:28.991Z,1.20
2019-01-02T23:24:13.400Z,1.10
2019-01-02T23:30:09.265Z,0.90
2019-01-02T23:33:11.111Z,1.00
2019-01-02T23:36:18.657Z,0.90
2019-01-02T23:51:57.745Z,0.90
2019-01-02T23:54:45.784Z,0.90
